Time;durP1;ratioP1;P1;durP2;ratioP2;P2;SDS_P1;SDS_P2;PMS_P1;PMS_P2;Temp;Humidity;BMP_temperature;BMP_pressure;BME280_temperature;BME280_humidity;BME280_pressure;Samples;Min_cycle;Max_cycle;Signal;HPM_P1;HPM_P2
2021/12/02 00:02:14;;;;;;;;;;;;;;;2.32;100.00;99743.19;5082439;28;19954;-55
2021/12/02 00:04:43;;;;;;;;;;;;;;;2.37;100.00;99745.53;5083874;28;19935;-54
2021/12/02 00:07:10;;;;;;;;;;;;;;;2.34;100.00;99738.75;5051459;28;19939;-54
2021/12/02 00:09:37;;;;;;;;;;;;;;;2.33;100.00;99738.81;5048947;28;19935;-54
2021/12/02 00:12:04;;;;;;;;;;;;;;;2.33;100.00;99752.66;5080923;28;20308;-55
2021/12/02 00:14:39;;;;;;;;;;;;;;;2.29;100.00;99752.84;5085969;28;19924;-54
2021/12/02 00:17:11;;;;;;;;;;;;;;;2.30;100.00;99763.16;5082646;28;19929;-54
2021/12/02 00:22:25;;;;;;;;;;;;;;;2.27;100.00;99772.88;5052460;28;19936;-53
2021/12/02 00:24:59;;;;;;;;;;;;;;;2.26;100.00;99774.59;5052623;28;20063;-54
2021/12/02 00:27:28;;;;;;;;;;;;;;;2.25;100.00;99780.72;5054151;28;19924;-53
2021/12/02 00:29:57;;;;;;;;;;;;;;;2.27;100.00;99760.72;5054081;28;19929;-56
2021/12/02 00:32:28;;;;;;;;;;;;;;;2.30;100.00;99762.31;5052160;28;19932;-56
2021/12/02 00:34:55;;;;;;;;;;;;;;;2.29;100.00;99765.81;5084220;28;19932;-53
2021/12/02 00:37:23;;;;;;;;;;;;;;;2.28;100.00;99758.97;5085429;28;20039;-53
2021/12/02 00:39:52;;;;;;;;;;;;;;;2.31;100.00;99757.06;5055252;28;19925;-53
2021/12/02 00:42:19;;;;;;;;;;;;;;;2.32;100.00;99757.91;5052304;28;20481;-55
2021/12/02 00:44:46;;;;;;;;;;;;;;;2.31;100.00;99754.47;5051520;28;20403;-52
2021/12/02 00:47:14;;;;;;;;;;;;;;;2.30;100.00;99760.56;5052152;28;19963;-51
2021/12/02 00:49:40;;;;;;;;;;;;;;;2.28;100.00;99758.97;5070335;28;19932;-48
2021/12/02 00:52:08;;;;;;;;;;;;;;;2.33;100.00;99762.16;5084822;28;19928;-51
2021/12/02 00:54:34;;;;;;;;;;;;;;;2.29;100.00;99766.69;5084178;28;20435;-50
2021/12/02 00:57:02;;;;;;;;;;;;;;;2.32;100.00;99794.25;5083911;28;19933;-52
2021/12/02 00:59:29;;;;;;;;;;;;;;;2.32;100.00;99809.81;5049373;28;19928;-51
2021/12/02 01:01:57;;;;;;;;;;;;;;;2.36;100.00;99819.13;5083892;28;19925;-50
2021/12/02 01:04:24;;;;;;;;;;;;;;;2.33;100.00;99819.25;5052306;28;19925;-50
2021/12/02 01:06:51;;;;;;;;;;;;;;;2.20;100.00;99819.00;5069109;28;19929;-47
2021/12/02 01:09:18;;;;;;;;;;;;;;;2.18;100.00;99816.50;5050421;28;19935;-51
2021/12/02 01:11:45;;;;;;;;;;;;;;;2.16;100.00;99813.09;5043175;28;19929;-50
2021/12/02 01:14:12;;;;;;;;;;;;;;;2.23;100.00;99805.88;5082492;28;20474;-52
2021/12/02 01:16:39;;;;;;;;;;;;;;;2.17;100.00;99806.19;5049040;28;19962;-51
2021/12/02 01:19:06;;;;;;;;;;;;;;;2.15;100.00;99808.00;5050124;28;20343;-52
2021/12/02 01:21:32;;;;;;;;;;;;;;;2.14;100.00;99798.53;5081101;28;19924;-54
2021/12/02 01:24:00;;;;;;;;;;;;;;;2.20;100.00;99798.25;5067251;28;20042;-56
2021/12/02 01:26:28;;;;;;;;;;;;;;;2.15;100.00;99801.03;5051642;28;19933;-52
2021/12/02 01:28:55;;;;;;;;;;;;;;;2.18;100.00;99798.31;5049123;28;19936;-50
2021/12/02 01:31:21;;;;;;;;;;;;;;;2.19;100.00;99787.00;5081742;28;20402;-54
2021/12/02 01:33:48;;;;;;;;;;;;;;;2.20;100.00;99785.28;5048458;28;19974;-51
2021/12/02 01:36:15;;;;;;;;;;;;;;;2.17;100.00;99790.63;5050741;28;20264;-50
2021/12/02 01:38:42;;;;;;;;;;;;;;;2.16;100.00;99789.75;5081056;28;19971;-47
2021/12/02 01:41:09;;;;;;;;;;;;;;;2.19;100.00;99799.16;5082053;28;19924;-48
2021/12/02 01:43:35;;;;;;;;;;;;;;;2.13;100.00;99802.06;5049484;28;19925;-50
2021/12/02 01:46:03;;;;;;;;;;;;;;;2.06;100.00;99801.50;5048573;28;20031;-50
2021/12/02 01:48:30;;;;;;;;;;;;;;;2.09;100.00;99806.53;5048728;28;19931;-47
2021/12/02 01:51:01;;;;;;;;;;;;;;;2.11;100.00;99804.69;5049162;28;19978;-51
2021/12/02 01:53:30;;;;;;;;;;;;;;;2.11;100.00;99804.69;5050103;28;20386;-47
2021/12/02 01:55:57;;;;;;;;;;;;;;;2.12;100.00;99808.16;5049381;28;20395;-49
2021/12/02 01:58:24;;;;;;;;;;;;;;;2.14;100.00;99809.75;5081989;28;19924;-52
2021/12/02 02:00:51;;;;;;;;;;;;;;;2.11;100.00;99809.06;5063345;28;19933;-52
2021/12/02 02:03:18;;;;;;;;;;;;;;;2.14;100.00;99814.09;5081378;28;19925;-50
2021/12/02 02:05:45;;;;;;;;;;;;;;;2.10;100.00;99818.59;5050145;28;20396;-52
2021/12/02 02:08:16;;;;;;;;;;;;;;;2.07;100.00;99823.91;5084808;28;19925;-52
2021/12/02 02:10:44;;;;;;;;;;;;;;;2.09;100.00;99823.88;5050578;28;19933;-50
2021/12/02 02:13:12;;;;;;;;;;;;;;;2.15;100.00;99826.97;5049384;28;19935;-49
2021/12/02 02:15:40;;;;;;;;;;;;;;;2.22;100.00;99816.34;5049352;28;20028;-48
2021/12/02 02:20:54;;;;;;;;;;;;;;;2.32;100.00;99812.41;5050100;28;19960;-50
2021/12/02 02:23:21;;;;;;;;;;;;;;;2.32;100.00;99818.44;5050707;28;19932;-50
2021/12/02 02:25:48;;;;;;;;;;;;;;;2.24;100.00;99814.53;5050383;28;19978;-49
2021/12/02 02:28:15;;;;;;;;;;;;;;;2.19;100.00;99799.16;5084449;28;19925;-51
2021/12/02 02:30:42;;;;;;;;;;;;;;;2.19;100.00;99796.56;5053196;28;19970;-50
2021/12/02 02:33:11;;;;;;;;;;;;;;;2.15;100.00;99798.44;5049975;28;20592;-48
2021/12/02 02:35:41;;;;;;;;;;;;;;;2.14;100.00;99801.97;5050047;28;19929;-50
2021/12/02 02:38:09;;;;;;;;;;;;;;;2.10;100.00;99803.03;5083068;28;19932;-47
2021/12/02 02:40:39;;;;;;;;;;;;;;;2.06;100.00;99806.69;5081372;28;19935;-50
2021/12/02 02:43:08;;;;;;;;;;;;;;;2.04;100.00;99808.50;5052726;28;19941;-47
2021/12/02 02:45:35;;;;;;;;;;;;;;;2.05;100.00;99814.53;5052885;28;20023;-49
2021/12/02 02:48:02;;;;;;;;;;;;;;;2.08;100.00;99810.03;5052808;28;19925;-48
2021/12/02 02:50:29;;;;;;;;;;;;;;;2.05;100.00;99807.59;5085344;28;19932;-48
2021/12/02 02:52:59;;;;;;;;;;;;;;;1.98;100.00;99806.19;5084670;28;19925;-54
2021/12/02 02:55:26;;;;;;;;;;;;;;;2.02;100.00;99810.34;5050933;28;19966;-52
2021/12/02 02:58:06;;;;;;;;;;;;;;;2.00;100.00;99813.00;5082025;28;19924;-54
2021/12/02 03:00:37;;;;;;;;;;;;;;;2.00;100.00;99806.94;5053141;28;19970;-52
2021/12/02 03:08:23;;;;;;;;;;;;;;;1.96;100.00;99808.00;5052675;28;19940;-54
2021/12/02 03:10:55;;;;;;;;;;;;;;;1.98;100.00;99808.78;5049863;28;19929;-47
2021/12/02 03:13:35;;;;;;;;;;;;;;;2.03;100.00;99806.81;5081337;28;19929;-53
2021/12/02 03:18:51;;;;;;;;;;;;;;;2.03;100.00;99810.25;5049188;28;19925;-56
2021/12/02 03:21:21;;;;;;;;;;;;;;;1.98;100.00;99807.03;5050014;28;19924;-47
2021/12/02 03:23:53;;;;;;;;;;;;;;;2.01;100.00;99816.44;5082634;28;19932;-49
2021/12/02 03:26:20;;;;;;;;;;;;;;;1.98;100.00;99807.03;5049890;28;20367;-49
2021/12/02 03:28:47;;;;;;;;;;;;;;;1.95;100.00;99819.28;5081764;28;19928;-48
2021/12/02 03:31:14;;;;;;;;;;;;;;;1.95;100.00;99814.97;5049397;28;19925;-56
2021/12/02 03:33:41;;;;;;;;;;;;;;;2.01;100.00;99812.06;5081302;28;19932;-47
2021/12/02 03:36:09;;;;;;;;;;;;;;;2.02;100.00;99815.53;5049308;28;19975;-54
2021/12/02 03:38:36;;;;;;;;;;;;;;;1.95;100.00;99817.56;5050736;28;19939;-55
2021/12/02 03:41:03;;;;;;;;;;;;;;;1.94;100.00;99815.88;5082973;28;19943;-54
2021/12/02 03:43:48;;;;;;;;;;;;;;;1.94;100.00;99818.44;5081696;28;20417;-49
2021/12/02 03:46:16;;;;;;;;;;;;;;;1.94;100.00;99818.44;5081185;28;20391;-55
2021/12/02 03:48:43;;;;;;;;;;;;;;;1.88;100.00;99833.44;5055058;28;19956;-53
2021/12/02 03:51:10;;;;;;;;;;;;;;;1.87;100.00;99845.59;5056251;28;19929;-56
2021/12/02 03:53:37;;;;;;;;;;;;;;;1.94;100.00;99834.00;5055932;28;19931;-47
2021/12/02 03:56:06;;;;;;;;;;;;;;;1.90;100.00;99835.06;5055906;28;19925;-56
2021/12/02 03:58:33;;;;;;;;;;;;;;;1.86;100.00;99831.75;5087646;28;20364;-48
2021/12/02 04:01:00;;;;;;;;;;;;;;;1.90;100.00;99818.69;5071231;28;19929;-51
2021/12/02 04:03:27;;;;;;;;;;;;;;;1.91;100.00;99807.38;5055909;28;20027;-52
2021/12/02 04:05:54;;;;;;;;;;;;;;;1.90;100.00;99801.34;5054294;28;20333;-55
2021/12/02 04:08:27;;;;;;;;;;;;;;;1.84;100.00;99807.66;5085150;28;19925;-56
2021/12/02 04:10:59;;;;;;;;;;;;;;;1.82;100.00;99817.25;5055396;28;19925;-54
2021/12/02 04:13:31;;;;;;;;;;;;;;;1.80;100.00;99808.72;5055649;28;20004;-54
2021/12/02 04:16:02;;;;;;;;;;;;;;;1.83;100.00;99805.16;5055448;28;19929;-52
2021/12/02 04:18:29;;;;;;;;;;;;;;;1.82;100.00;99804.28;5055896;28;20272;-51
2021/12/02 04:20:56;;;;;;;;;;;;;;;1.82;100.00;99804.28;5055490;28;19925;-53
2021/12/02 04:23:23;;;;;;;;;;;;;;;1.86;100.00;99800.66;5055317;28;19935;-56
2021/12/02 04:25:49;;;;;;;;;;;;;;;1.90;100.00;99797.94;5054814;28;19924;-53
2021/12/02 04:28:16;;;;;;;;;;;;;;;1.90;100.00;99801.34;5053222;28;19932;-56
2021/12/02 04:30:43;;;;;;;;;;;;;;;1.91;100.00;99809.97;5051715;28;20398;-56
2021/12/02 04:33:10;;;;;;;;;;;;;;;1.85;100.00;99809.34;5086705;28;19940;-55
2021/12/02 04:35:36;;;;;;;;;;;;;;;1.83;100.00;99807.75;5053132;28;19925;-51
2021/12/02 04:38:03;;;;;;;;;;;;;;;1.81;100.00;99807.81;5052482;28;19956;-52
2021/12/02 04:40:30;;;;;;;;;;;;;;;1.73;100.00;99809.88;5055195;28;19925;-56
2021/12/02 04:42:56;;;;;;;;;;;;;;;1.78;100.00;99810.53;5055341;28;19932;-56
2021/12/02 04:45:23;;;;;;;;;;;;;;;1.84;100.00;99806.81;5055214;28;19940;-56
2021/12/02 04:47:50;;;;;;;;;;;;;;;1.80;100.00;99811.31;5084972;28;19928;-51
2021/12/02 04:50:16;;;;;;;;;;;;;;;1.79;100.00;99814.81;5052690;28;19924;-50
2021/12/02 04:52:43;;;;;;;;;;;;;;;1.75;100.00;99813.25;5086539;28;20307;-51
2021/12/02 04:55:10;;;;;;;;;;;;;;;1.76;100.00;99820.13;5054827;28;20326;-52
2021/12/02 04:57:37;;;;;;;;;;;;;;;1.79;100.00;99820.00;5070328;28;19956;-56
2021/12/02 05:00:05;;;;;;;;;;;;;;;1.79;100.00;99821.75;5034408;28;19925;-52
2021/12/02 05:02:32;;;;;;;;;;;;;;;1.76;100.00;99827.06;5050088;28;20451;-54
2021/12/02 05:04:59;;;;;;;;;;;;;;;1.78;100.00;99827.84;5054156;28;19978;-56
2021/12/02 05:07:26;;;;;;;;;;;;;;;1.77;100.00;99831.34;5054714;28;19931;-55
2021/12/02 05:09:52;;;;;;;;;;;;;;;1.75;100.00;99839.19;5055012;28;19925;-55
2021/12/02 05:12:21;;;;;;;;;;;;;;;1.74;100.00;99842.69;5053412;28;19931;-52
2021/12/02 05:14:47;;;;;;;;;;;;;;;1.73;100.00;99835.81;5082708;28;19924;-53
2021/12/02 05:17:14;;;;;;;;;;;;;;;1.73;100.00;99830.63;5053341;28;20383;-56
2021/12/02 05:19:41;;;;;;;;;;;;;;;1.75;100.00;99834.00;5054499;28;19925;-56
2021/12/02 05:22:08;;;;;;;;;;;;;;;1.72;100.00;99846.25;5054419;28;20342;-52
2021/12/02 05:24:34;;;;;;;;;;;;;;;1.73;100.00;99856.53;5054403;28;20363;-55
2021/12/02 05:27:01;;;;;;;;;;;;;;;1.75;100.00;99854.75;5054147;28;19924;-52
2021/12/02 05:29:28;;;;;;;;;;;;;;;1.77;100.00;99858.13;5051878;28;19974;-56
2021/12/02 05:31:54;;;;;;;;;;;;;;;1.77;100.00;99854.66;5051445;28;19928;-56
2021/12/02 05:34:21;;;;;;;;;;;;;;;1.73;100.00;99863.50;5049548;28;20402;-56
2021/12/02 05:36:48;;;;;;;;;;;;;;;1.72;100.00;99870.44;5051362;28;19928;-56
2021/12/02 05:39:14;;;;;;;;;;;;;;;1.66;100.00;99861.19;5053916;28;19929;-47
2021/12/02 05:41:43;;;;;;;;;;;;;;;1.72;100.00;99865.25;5086182;28;20380;-48
2021/12/02 05:44:09;;;;;;;;;;;;;;;1.67;100.00;99872.38;5051329;28;20465;-54
2021/12/02 05:46:36;;;;;;;;;;;;;;;1.63;100.00;99868.25;5065419;28;19928;-56
2021/12/02 05:49:03;;;;;;;;;;;;;;;1.59;100.00;99867.53;5068894;28;19932;-56
2021/12/02 05:51:30;;;;;;;;;;;;;;;1.61;100.00;99862.28;5053799;28;19928;-53
2021/12/02 05:53:56;;;;;;;;;;;;;;;1.65;100.00;99862.09;5054008;28;20384;-56
2021/12/02 05:56:23;;;;;;;;;;;;;;;1.62;100.00;99863.97;5053956;28;20023;-50
2021/12/02 05:58:50;;;;;;;;;;;;;;;1.56;100.00;99870.25;5054296;28;20003;-47
2021/12/02 06:01:17;;;;;;;;;;;;;;;1.51;100.00;99873.06;5053601;28;19925;-53
2021/12/02 06:03:43;;;;;;;;;;;;;;;1.61;100.00;99873.50;5053755;28;19925;-48
2021/12/02 06:06:10;;;;;;;;;;;;;;;1.60;100.00;99887.34;5053537;28;20376;-47
2021/12/02 06:08:37;;;;;;;;;;;;;;;1.57;100.00;99902.19;5053499;28;19925;-54
2021/12/02 06:11:04;;;;;;;;;;;;;;;1.60;100.00;99907.25;5053424;28;19925;-54
2021/12/02 06:13:31;;;;;;;;;;;;;;;1.58;100.00;99901.28;5052417;28;19932;-55
2021/12/02 06:15:57;;;;;;;;;;;;;;;1.55;100.00;99904.03;5051970;28;20004;-48
2021/12/02 06:18:24;;;;;;;;;;;;;;;1.46;100.00;99900.91;5082519;28;20015;-51
2021/12/02 06:20:53;;;;;;;;;;;;;;;1.52;100.00;99895.44;5051078;28;19959;-54
2021/12/02 06:23:21;;;;;;;;;;;;;;;1.49;100.00;99905.13;5052138;28;19932;-54
2021/12/02 06:25:48;;;;;;;;;;;;;;;1.50;100.00;99907.66;5085499;28;19924;-52
2021/12/02 06:28:15;;;;;;;;;;;;;;;1.48;100.00;99906.84;5085288;28;19925;-54
2021/12/02 06:30:42;;;;;;;;;;;;;;;1.52;100.00;99912.75;5053063;28;19929;-47
2021/12/02 06:33:09;;;;;;;;;;;;;;;1.51;100.00;99909.34;5053000;28;19931;-51
2021/12/02 06:35:37;;;;;;;;;;;;;;;1.52;100.00;99905.00;5052032;28;20338;-55
2021/12/02 06:38:04;;;;;;;;;;;;;;;1.56;100.00;99901.34;5082374;28;19931;-53
2021/12/02 06:40:34;;;;;;;;;;;;;;;1.51;100.00;99901.56;5048830;28;21353;-47
2021/12/02 06:43:02;;;;;;;;;;;;;;;1.57;100.00;99891.81;5052906;28;20437;-53
2021/12/02 06:45:28;;;;;;;;;;;;;;;1.58;100.00;99896.09;5052058;28;20822;-47
2021/12/02 06:47:59;;;;;;;;;;;;;;;1.60;100.00;99902.09;5050373;28;20298;-50
2021/12/02 06:50:26;;;;;;;;;;;;;;;1.63;100.00;99904.53;5080930;28;19931;-49
2021/12/02 06:52:53;;;;;;;;;;;;;;;1.64;100.00;99904.47;5049664;28;20040;-54
2021/12/02 06:55:19;;;;;;;;;;;;;;;1.67;100.00;99904.31;5052189;28;19924;-57
2021/12/02 06:57:46;;;;;;;;;;;;;;;1.66;100.00;99909.56;5084906;28;19952;-54
2021/12/02 07:00:14;;;;;;;;;;;;;;;1.61;100.00;99912.38;5049284;28;19933;-53
2021/12/02 07:02:41;;;;;;;;;;;;;;;1.70;100.00;99908.53;5050790;28;19925;-56
2021/12/02 07:05:09;;;;;;;;;;;;;;;1.60;100.00;99918.47;5052606;28;19925;-52
2021/12/02 07:07:37;;;;;;;;;;;;;;;1.53;100.00;99927.41;5084578;28;19932;-55
2021/12/02 07:10:14;;;;;;;;;;;;;;;1.52;100.00;99916.19;5053063;28;20290;-54
2021/12/02 07:12:43;;;;;;;;;;;;;;;1.52;100.00;99929.16;5050944;28;19925;-56
2021/12/02 07:15:16;;;;;;;;;;;;;;;1.52;100.00;99930.91;5049744;28;19947;-53
2021/12/02 07:17:44;;;;;;;;;;;;;;;1.51;100.00;99932.66;5050885;28;19925;-56
2021/12/02 07:20:12;;;;;;;;;;;;;;;1.56;100.00;99942.00;5084428;28;20379;-53
2021/12/02 07:22:38;;;;;;;;;;;;;;;1.43;100.00;99952.88;5051657;28;19928;-55
2021/12/02 07:25:05;;;;;;;;;;;;;;;1.40;100.00;99954.75;5054032;28;20383;-49
2021/12/02 07:27:32;;;;;;;;;;;;;;;1.34;100.00;99955.84;5086397;28;19979;-50
2021/12/02 07:29:59;;;;;;;;;;;;;;;1.32;100.00;99960.22;5055299;28;19932;-52
2021/12/02 07:32:26;;;;;;;;;;;;;;;1.30;100.00;99965.47;5053132;28;19925;-50
2021/12/02 07:34:53;;;;;;;;;;;;;;;1.29;100.00;99966.38;5056038;28;19924;-54
2021/12/02 07:37:20;;;;;;;;;;;;;;;1.17;100.00;99970.31;5056659;28;19925;-55
2021/12/02 07:39:46;;;;;;;;;;;;;;;1.24;100.00;99962.28;5053373;28;19925;-52
2021/12/02 07:42:28;;;;;;;;;;;;;;;1.19;100.00;99978.03;5054450;28;19925;-54
2021/12/02 07:44:55;;;;;;;;;;;;;;;1.18;100.00;99977.16;5088391;28;19928;-55
2021/12/02 07:47:22;;;;;;;;;;;;;;;1.14;100.00;99980.78;5056321;28;19932;-53
2021/12/02 07:49:49;;;;;;;;;;;;;;;1.13;100.00;99981.72;5088337;28;20307;-54
2021/12/02 07:52:16;;;;;;;;;;;;;;;1.15;100.00;99982.47;5070904;28;19931;-54
2021/12/02 07:54:42;;;;;;;;;;;;;;;1.14;100.00;99991.16;5085910;28;19928;-52
2021/12/02 07:57:10;;;;;;;;;;;;;;;1.14;100.00;99988.56;5085127;28;19935;-55
2021/12/02 07:59:37;;;;;;;;;;;;;;;1.16;100.00;99993.69;5052858;28;19947;-48
2021/12/02 08:02:03;;;;;;;;;;;;;;;1.22;100.00;100005.56;5052008;28;19952;-48
2021/12/02 08:04:30;;;;;;;;;;;;;;;1.25;100.00;100001.09;5052597;28;19925;-54
2021/12/02 08:06:57;;;;;;;;;;;;;;;1.29;100.00;100007.81;5069151;28;20379;-47
2021/12/02 08:09:24;;;;;;;;;;;;;;;1.33;100.00;100005.97;5054581;28;19928;-49
2021/12/02 08:11:50;;;;;;;;;;;;;;;1.33;100.00;100004.22;5053369;28;19972;-50
2021/12/02 08:14:17;;;;;;;;;;;;;;;1.43;100.00;100004.72;5054557;28;19932;-50
2021/12/02 08:16:44;;;;;;;;;;;;;;;1.46;100.00;100008.91;5055805;28;19951;-54
2021/12/02 08:19:11;;;;;;;;;;;;;;;1.44;100.00;100016.72;5055327;28;20398;-56
2021/12/02 08:21:38;;;;;;;;;;;;;;;1.45;100.00;100015.00;5051797;28;19978;-51
2021/12/02 08:24:05;;;;;;;;;;;;;;;1.48;100.00;100020.88;5054394;28;20024;-49
2021/12/02 08:26:32;;;;;;;;;;;;;;;1.52;100.00;100022.44;5055538;28;19978;-49
2021/12/02 08:28:59;;;;;;;;;;;;;;;1.54;100.00;100032.78;5055443;28;19932;-50
2021/12/02 08:31:26;;;;;;;;;;;;;;;1.60;100.00;100029.09;5055182;28;20383;-49
2021/12/02 08:33:54;;;;;;;;;;;;;;;1.64;100.00;100034.06;5051667;28;19925;-49
2021/12/02 08:36:24;;;;;;;;;;;;;;;1.67;100.00;100028.75;5085335;28;19928;-55
2021/12/02 08:38:51;;;;;;;;;;;;;;;1.76;100.00;100027.56;5055153;28;19932;-53
2021/12/02 08:41:18;;;;;;;;;;;;;;;1.79;100.00;100032.59;5068760;28;20357;-55
2021/12/02 08:43:48;;;;;;;;;;;;;;;1.86;100.00;100035.78;5084812;28;19975;-49
2021/12/02 08:46:15;;;;;;;;;;;;;;;1.91;100.00;100043.34;5054013;28;20421;-54
2021/12/02 08:48:45;;;;;;;;;;;;;;;1.90;100.00;100045.13;5051890;28;19925;-53
2021/12/02 08:51:12;;;;;;;;;;;;;;;1.90;100.00;100049.47;5053691;28;19925;-57
2021/12/02 08:53:39;;;;;;;;;;;;;;;1.88;100.00;100051.28;5087090;28;19978;-47
2021/12/02 08:56:06;;;;;;;;;;;;;;;1.90;100.00;100054.66;5051712;28;20375;-47
2021/12/02 08:58:34;;;;;;;;;;;;;;;1.98;100.00;100068.16;5052421;28;19924;-49
2021/12/02 09:01:01;;;;;;;;;;;;;;;2.00;100.00;100068.91;5054842;28;20649;-47
2021/12/02 09:03:28;;;;;;;;;;;;;;;1.95;100.00;100063.94;5054817;28;19968;-55
2021/12/02 09:05:54;;;;;;;;;;;;;;;1.97;100.00;100064.69;5068700;28;20042;-48
2021/12/02 09:08:24;;;;;;;;;;;;;;;2.01;100.00;100066.25;5052447;28;19994;-52
2021/12/02 09:10:50;;;;;;;;;;;;;;;2.01;100.00;100073.19;5052238;28;19931;-49
2021/12/02 09:13:17;;;;;;;;;;;;;;;2.00;100.00;100087.94;5052036;28;19929;-48
2021/12/02 09:15:45;;;;;;;;;;;;;;;2.01;100.00;100075.78;5054565;28;20409;-48
2021/12/02 09:18:11;;;;;;;;;;;;;;;2.04;100.00;100078.25;5054535;28;19932;-53
2021/12/02 09:20:38;;;;;;;;;;;;;;;2.16;100.00;100095.06;5053217;28;19979;-52
2021/12/02 09:23:05;;;;;;;;;;;;;;;2.21;100.00;100100.91;5051997;28;20017;-54
2021/12/02 09:25:31;;;;;;;;;;;;;;;2.22;100.00;100102.56;5049907;28;19925;-52
2021/12/02 09:27:58;;;;;;;;;;;;;;;2.25;100.00;100102.47;5052015;28;19925;-53
2021/12/02 09:30:25;;;;;;;;;;;;;;;2.39;100.00;100107.06;5054435;28;19925;-48
2021/12/02 09:32:52;;;;;;;;;;;;;;;2.27;100.00;100107.59;5053622;28;19925;-50
2021/12/02 09:35:19;;;;;;;;;;;;;;;2.28;100.00;100107.53;5051919;28;19928;-51
2021/12/02 09:37:46;;;;;;;;;;;;;;;2.26;100.00;100113.69;5082588;28;19925;-54
2021/12/02 09:40:14;;;;;;;;;;;;;;;2.29;100.00;100117.00;5053470;28;19970;-52
2021/12/02 09:42:40;;;;;;;;;;;;;;;2.38;100.00;100110.56;5050959;28;19939;-48
2021/12/02 09:45:07;;;;;;;;;;;;;;;2.45;100.00;100106.78;5083109;28;19924;-50
2021/12/02 09:47:36;;;;;;;;;;;;;;;2.69;100.00;100102.28;5086052;28;20414;-51
2021/12/02 09:50:23;;;;;;;;;;;;;;;2.85;100.00;100105.06;5053851;28;19932;-52
2021/12/02 09:52:50;;;;;;;;;;;;;;;3.11;100.00;100092.63;5051217;28;19925;-55
2021/12/02 09:55:24;;;;;;;;;;;;;;;3.23;100.00;100091.19;5051065;28;19936;-53
2021/12/02 09:57:56;;;;;;;;;;;;;;;3.09;100.00;100098.81;5050654;28;20410;-54
2021/12/02 10:00:35;;;;;;;;;;;;;;;3.11;100.00;100099.56;5080791;28;19931;-55
2021/12/02 10:03:06;;;;;;;;;;;;;;;3.10;100.00;100097.91;5053237;28;19924;-50
2021/12/02 10:05:39;;;;;;;;;;;;;;;3.01;100.00;100107.81;5049920;28;20379;-51
2021/12/02 10:08:08;;;;;;;;;;;;;;;3.02;100.00;100108.63;5081793;28;19929;-55
2021/12/02 10:10:41;;;;;;;;;;;;;;;3.02;100.00;100114.66;5050191;28;19929;-54
2021/12/02 10:13:32;;;;;;;;;;;;;;;3.08;100.00;100123.97;5050682;28;20307;-53
2021/12/02 10:16:02;;;;;;;;;;;;;;;3.19;100.00;100121.72;5076463;28;19924;-51
2021/12/02 10:18:37;;;;;;;;;;;;;;;3.11;100.00;100118.63;5053423;28;19924;-49
2021/12/02 10:21:22;;;;;;;;;;;;;;;3.17;100.00;100133.91;5051243;28;20387;-49
2021/12/02 10:23:48;;;;;;;;;;;;;;;3.03;100.00;100142.34;5050346;28;19946;-53
2021/12/02 10:26:18;;;;;;;;;;;;;;;3.02;100.00;100145.00;5053062;28;20019;-50
2021/12/02 10:28:45;;;;;;;;;;;;;;;3.08;100.00;100142.16;5052133;28;19994;-57
2021/12/02 10:31:16;;;;;;;;;;;;;;;2.92;100.00;100148.91;5085003;28;19924;-48
2021/12/02 10:33:46;;;;;;;;;;;;;;;3.00;100.00;100147.69;5051344;28;20371;-50
2021/12/02 10:36:31;;;;;;;;;;;;;;;2.83;100.00;100153.59;5050057;28;19959;-52
2021/12/02 10:39:08;;;;;;;;;;;;;;;2.78;100.00;100158.19;5050386;28;19925;-47
2021/12/02 10:41:35;;;;;;;;;;;;;;;2.74;100.00;100159.22;5052130;28;19925;-47
2021/12/02 10:44:16;;;;;;;;;;;;;;;2.74;100.00;100156.63;5049449;28;19931;-50
2021/12/02 10:46:56;;;;;;;;;;;;;;;2.80;100.00;100151.16;5081803;28;19936;-51
2021/12/02 10:49:42;;;;;;;;;;;;;;;2.83;100.00;100151.00;5049595;28;20370;-52
2021/12/02 10:52:13;;;;;;;;;;;;;;;2.97;100.00;100145.22;5081927;28;19944;-54
2021/12/02 10:54:42;;;;;;;;;;;;;;;3.12;100.00;100143.69;5049746;28;19924;-55
2021/12/02 10:57:08;;;;;;;;;;;;;;;3.12;100.00;100148.91;5049278;28;20047;-52
2021/12/02 10:59:39;;;;;;;;;;;;;;;3.12;100.00;100146.28;5048925;28;19929;-55
2021/12/02 11:02:07;;;;;;;;;;;;;;;3.14;100.00;100152.25;5046587;28;19924;-49
2021/12/02 11:04:36;;;;;;;;;;;;;;;3.15;100.00;100161.75;5052689;28;19925;-48
2021/12/02 11:07:05;;;;;;;;;;;;;;;3.22;100.00;100149.31;5050158;28;20415;-51
2021/12/02 11:09:32;;;;;;;;;;;;;;;3.32;100.00;100149.72;5048587;28;19928;-50
2021/12/02 11:12:08;;;;;;;;;;;;;;;3.43;100.00;100144.03;5081041;28;20391;-48
2021/12/02 11:14:55;;;;;;;;;;;;;;;3.41;100.00;100148.44;5052206;28;19925;-54
2021/12/02 11:17:22;;;;;;;;;;;;;;;3.52;100.00;100160.03;5050035;28;19929;-52
2021/12/02 11:19:50;;;;;;;;;;;;;;;3.57;100.00;100153.78;5051771;28;19998;-51
2021/12/02 11:22:20;;;;;;;;;;;;;;;3.53;100.00;100147.88;5047137;28;20402;-51
2021/12/02 11:24:48;;;;;;;;;;;;;;;3.49;100.00;100152.41;5047472;28;20346;-50
2021/12/02 11:27:19;;;;;;;;;;;;;;;3.55;100.00;100172.91;5047041;28;19959;-49
2021/12/02 11:29:53;;;;;;;;;;;;;;;3.48;100.00;100174.09;5049780;28;19932;-48
2021/12/02 11:32:33;;;;;;;;;;;;;;;3.42;99.77;100187.38;5048171;28;19932;-51
2021/12/02 11:35:02;;;;;;;;;;;;;;;3.44;100.00;100193.34;5047028;28;20616;-51
2021/12/02 11:37:29;;;;;;;;;;;;;;;3.58;100.00;100191.88;5050889;28;19932;-50
2021/12/02 11:39:58;;;;;;;;;;;;;;;3.49;100.00;100187.94;5057914;28;19978;-50
2021/12/02 11:42:25;;;;;;;;;;;;;;;3.45;100.00;100200.25;5079337;28;20288;-52
2021/12/02 11:44:51;;;;;;;;;;;;;;;3.52;100.00;100196.44;5045880;28;19978;-52
2021/12/02 11:47:18;;;;;;;;;;;;;;;3.51;100.00;100199.13;5046577;28;19928;-52
2021/12/02 11:49:45;;;;;;;;;;;;;;;3.59;100.00;100199.63;5065054;28;20418;-51
2021/12/02 11:52:11;;;;;;;;;;;;;;;3.62;100.00;100196.03;5045791;28;19929;-52
2021/12/02 11:54:38;;;;;;;;;;;;;;;3.65;100.00;100208.88;5060820;28;20358;-55
2021/12/02 11:57:05;;;;;;;;;;;;;;;3.67;100.00;100209.66;5079739;28;19937;-50
2021/12/02 11:59:33;;;;;;;;;;;;;;;3.76;100.00;100211.00;5078325;28;19925;-49
2021/12/02 12:02:00;;;;;;;;;;;;;;;3.72;99.25;100210.28;5046173;28;19958;-48
2021/12/02 12:04:26;;;;;;;;;;;;;;;3.83;99.02;100215.84;5045930;28;20039;-50
2021/12/02 12:06:54;;;;;;;;;;;;;;;3.86;100.00;100215.69;5040149;28;19932;-49
2021/12/02 12:09:22;;;;;;;;;;;;;;;3.87;99.80;100217.38;5084458;28;20398;-51
2021/12/02 12:11:50;;;;;;;;;;;;;;;3.98;100.00;100223.81;5054880;28;19924;-56
2021/12/02 12:14:19;;;;;;;;;;;;;;;4.01;100.00;100223.69;5054350;28;20015;-55
2021/12/02 12:16:47;;;;;;;;;;;;;;;4.00;100.00;100230.63;5049951;28;19967;-55
2021/12/02 12:19:14;;;;;;;;;;;;;;;4.01;100.00;100236.69;5050197;28;19948;-55
2021/12/02 12:21:41;;;;;;;;;;;;;;;3.96;97.70;100236.06;5049916;28;19975;-55
2021/12/02 12:24:08;;;;;;;;;;;;;;;3.85;98.36;100242.59;5082881;28;20282;-55
2021/12/02 12:26:37;;;;;;;;;;;;;;;3.72;98.08;100244.94;5050616;28;19925;-55
2021/12/02 12:29:07;;;;;;;;;;;;;;;3.69;98.01;100254.63;5049864;28;19971;-55
2021/12/02 12:32:00;;;;;;;;;;;;;;;3.68;97.58;100260.75;5050262;28;19924;-55
2021/12/02 12:34:31;;;;;;;;;;;;;;;3.78;97.42;100264.63;5044575;28;19924;-50
2021/12/02 12:36:58;;;;;;;;;;;;;;;3.69;98.02;100271.06;5060323;28;19925;-52
2021/12/02 12:39:26;;;;;;;;;;;;;;;3.67;98.14;100270.31;5050893;28;19929;-51
2021/12/02 12:42:22;;;;;;;;;;;;;;;3.74;99.29;100273.50;5050983;28;19929;-51
2021/12/02 12:44:49;;;;;;;;;;;;;;;3.70;97.06;100262.38;5043895;28;19935;-50
2021/12/02 12:47:16;;;;;;;;;;;;;;;3.66;96.96;100265.19;5038884;28;19929;-49
2021/12/02 12:49:42;;;;;;;;;;;;;;;3.64;96.89;100265.25;5046428;28;19929;-49
2021/12/02 12:52:16;;;;;;;;;;;;;;;3.57;97.50;100269.03;5082056;28;19935;-50
2021/12/02 12:55:00;;;;;;;;;;;;;;;3.68;97.96;100261.59;5050334;28;19936;-53
2021/12/02 12:57:27;;;;;;;;;;;;;;;3.54;97.92;100272.66;5075395;28;19948;-48
2021/12/02 12:59:56;;;;;;;;;;;;;;;3.69;97.70;100265.88;5052629;28;19994;-49
2021/12/02 13:02:25;;;;;;;;;;;;;;;3.71;97.80;100268.44;5041151;28;20347;-51
2021/12/02 13:04:54;;;;;;;;;;;;;;;3.62;97.42;100274.88;5050629;28;19925;-52